sensor_id;sensor_type;location;lat;lon;timestamp;pressure;altitude;pressure_sealevel;temperature;humidity
7990;BME280;4040;42.848;23.034;2022-11-12T00:00:59;96329.84;;;8.41;100.00
7990;BME280;4040;42.848;23.034;2022-11-12T00:03:26;96315.22;;;8.38;100.00
7990;BME280;4040;42.848;23.034;2022-11-12T00:09:15;96307.41;;;8.33;100.00
7990;BME280;4040;42.848;23.034;2022-11-12T00:15:04;96289.13;;;8.39;100.00
7990;BME280;4040;42.848;23.034;2022-11-12T00:20:54;96286.03;;;8.37;100.00
7990;BME280;4040;42.848;23.034;2022-11-12T00:26:42;96299.69;;;8.47;100.00
7990;BME280;4040;42.848;23.034;2022-11-12T00:32:31;96289.44;;;8.53;100.00
7990;BME280;4040;42.848;23.034;2022-11-12T00:38:24;96283.91;;;8.46;100.00
7990;BME280;4040;42.848;23.034;2022-11-12T00:44:12;96281.81;;;8.55;100.00
7990;BME280;4040;42.848;23.034;2022-11-12T00:50:01;96281.25;;;8.65;100.00
7990;BME280;4040;42.848;23.034;2022-11-12T00:55:51;96276.31;;;8.67;100.00
7990;BME280;4040;42.848;23.034;2022-11-12T01:01:40;96262.53;;;8.49;100.00
7990;BME280;4040;42.848;23.034;2022-11-12T01:07:29;96272.19;;;8.35;100.00
7990;BME280;4040;42.848;23.034;2022-11-12T01:13:19;96258.16;;;8.26;100.00
7990;BME280;4040;42.848;23.034;2022-11-12T01:19:10;96253.31;;;8.16;100.00
7990;BME280;4040;42.848;23.034;2022-11-12T01:24:58;96281.28;;;8.15;100.00
7990;BME280;4040;42.848;23.034;2022-11-12T01:30:48;96272.09;;;8.31;100.00
7990;BME280;4040;42.848;23.034;2022-11-12T01:36:38;96256.78;;;8.32;100.00
7990;BME280;4040;42.848;23.034;2022-11-12T01:42:29;96256.13;;;8.04;100.00
7990;BME280;4040;42.848;23.034;2022-11-12T01:48:25;96263.28;;;7.81;100.00
7990;BME280;4040;42.848;23.034;2022-11-12T01:54:17;96250.91;;;7.76;100.00
7990;BME280;4040;42.848;23.034;2022-11-12T02:00:10;96261.19;;;7.90;100.00
7990;BME280;4040;42.848;23.034;2022-11-12T02:10:24;96242.03;;;7.91;100.00
7990;BME280;4040;42.848;23.034;2022-11-12T02:16:13;96248.66;;;8.13;100.00
7990;BME280;4040;42.848;23.034;2022-11-12T02:22:03;96260.25;;;8.17;100.00
7990;BME280;4040;42.848;23.034;2022-11-12T02:27:52;96242.19;;;7.98;100.00
7990;BME280;4040;42.848;23.034;2022-11-12T02:33:42;96209.78;;;7.88;100.00
7990;BME280;4040;42.848;23.034;2022-11-12T02:39:32;96242.00;;;8.07;100.00
7990;BME280;4040;42.848;23.034;2022-11-12T02:45:21;96242.28;;;8.02;100.00
7990;BME280;4040;42.848;23.034;2022-11-12T02:51:10;96245.22;;;7.97;100.00
7990;BME280;4040;42.848;23.034;2022-11-12T02:57:00;96251.59;;;8.08;100.00
7990;BME280;4040;42.848;23.034;2022-11-12T03:02:49;96254.56;;;8.18;100.00
7990;BME280;4040;42.848;23.034;2022-11-12T03:13:07;96258.75;;;7.85;100.00
7990;BME280;4040;42.848;23.034;2022-11-12T03:18:56;96254.69;;;7.91;100.00
7990;BME280;4040;42.848;23.034;2022-11-12T03:24:44;96258.38;;;8.02;100.00
7990;BME280;4040;42.848;23.034;2022-11-12T03:30:36;96265.00;;;7.89;100.00
7990;BME280;4040;42.848;23.034;2022-11-12T03:36:25;96261.19;;;7.90;100.00
7990;BME280;4040;42.848;23.034;2022-11-12T03:42:14;96256.34;;;7.80;100.00
7990;BME280;4040;42.848;23.034;2022-11-12T03:48:05;96256.50;;;7.87;100.00
7990;BME280;4040;42.848;23.034;2022-11-12T03:53:53;96257.78;;;7.93;100.00
7990;BME280;4040;42.848;23.034;2022-11-12T03:59:42;96255.72;;;7.86;100.00
7990;BME280;4040;42.848;23.034;2022-11-12T04:05:32;96258.38;;;8.02;100.00
7990;BME280;4040;42.848;23.034;2022-11-12T04:16:04;96255.31;;;7.69;100.00
7990;BME280;4040;42.848;23.034;2022-11-12T04:22:09;96219.28;;;7.20;100.00
7990;BME280;4040;42.848;23.034;2022-11-12T04:27:58;96248.84;;;7.39;100.00
7990;BME280;4040;42.848;23.034;2022-11-12T04:33:47;96246.69;;;7.29;100.00
7990;BME280;4040;42.848;23.034;2022-11-12T04:39:36;96252.50;;;6.88;100.00
7990;BME280;4040;42.848;23.034;2022-11-12T04:45:25;96249.69;;;6.69;100.00
7990;BME280;4040;42.848;23.034;2022-11-12T04:51:14;96251.09;;;6.51;100.00
7990;BME280;4040;42.848;23.034;2022-11-12T04:53:55;96248.88;;;6.41;100.00
7990;BME280;4040;42.848;23.034;2022-11-12T04:59:45;96244.50;;;6.21;100.00
7990;BME280;4040;42.848;23.034;2022-11-12T05:05:34;96241.97;;;6.01;100.00
7990;BME280;4040;42.848;23.034;2022-11-12T05:11:22;96258.38;;;5.87;100.00
7990;BME280;4040;42.848;23.034;2022-11-12T05:17:13;96250.00;;;6.01;100.00
7990;BME280;4040;42.848;23.034;2022-11-12T05:23:01;96255.00;;;6.14;100.00
7990;BME280;4040;42.848;23.034;2022-11-12T05:28:50;96264.31;;;6.20;100.00
7990;BME280;4040;42.848;23.034;2022-11-12T05:34:41;96266.78;;;6.25;100.00
7990;BME280;4040;42.848;23.034;2022-11-12T05:40:30;96283.97;;;6.12;100.00
7990;BME280;4040;42.848;23.034;2022-11-12T05:46:18;96282.94;;;6.29;100.00
7990;BME280;4040;42.848;23.034;2022-11-12T05:52:08;96273.44;;;6.71;100.00
7990;BME280;4040;42.848;23.034;2022-11-12T05:57:57;96291.25;;;7.06;100.00
7990;BME280;4040;42.848;23.034;2022-11-12T06:03:46;96284.03;;;7.53;100.00
7990;BME280;4040;42.848;23.034;2022-11-12T06:09:36;96291.31;;;7.68;100.00
7990;BME280;4040;42.848;23.034;2022-11-12T06:15:25;96273.50;;;9.43;100.00
7990;BME280;4040;42.848;23.034;2022-11-12T06:21:14;96273.00;;;9.34;100.00
7990;BME280;4040;42.848;23.034;2022-11-12T06:27:15;96281.00;;;9.30;100.00
7990;BME280;4040;42.848;23.034;2022-11-12T06:33:03;96275.84;;;11.00;100.00
7990;BME280;4040;42.848;23.034;2022-11-12T06:38:52;96273.03;;;12.70;100.00
7990;BME280;4040;42.848;23.034;2022-11-12T06:44:42;96279.72;;;12.97;100.00
7990;BME280;4040;42.848;23.034;2022-11-12T06:50:31;96274.50;;;12.60;99.23
7990;BME280;4040;42.848;23.034;2022-11-12T06:56:19;96270.78;;;11.31;100.00
7990;BME280;4040;42.848;23.034;2022-11-12T07:02:11;96281.72;;;10.76;100.00
7990;BME280;4040;42.848;23.034;2022-11-12T07:08:00;96278.78;;;10.58;100.00
7990;BME280;4040;42.848;23.034;2022-11-12T07:17:52;96271.25;;;13.02;91.26
7990;BME280;4040;42.848;23.034;2022-11-12T07:23:40;96269.06;;;13.42;83.46
7990;BME280;4040;42.848;23.034;2022-11-12T07:29:29;96272.09;;;13.27;86.05
7990;BME280;4040;42.848;23.034;2022-11-12T07:35:19;96256.91;;;16.20;64.20
7990;BME280;4040;42.848;23.034;2022-11-12T07:41:09;96269.19;;;12.71;76.14
7990;BME280;4040;42.848;23.034;2022-11-12T07:46:58;96282.19;;;11.94;84.16
7990;BME280;4040;42.848;23.034;2022-11-12T07:52:48;96277.78;;;11.39;93.01
7990;BME280;4040;42.848;23.034;2022-11-12T07:58:37;96287.66;;;11.25;99.41
7990;BME280;4040;42.848;23.034;2022-11-12T08:04:26;96285.69;;;10.85;96.24
7990;BME280;4040;42.848;23.034;2022-11-12T08:10:16;96275.72;;;10.60;100.00
7990;BME280;4040;42.848;23.034;2022-11-12T08:20:16;96292.47;;;10.46;100.00
7990;BME280;4040;42.848;23.034;2022-11-12T08:26:10;96288.09;;;10.64;100.00
7990;BME280;4040;42.848;23.034;2022-11-12T08:31:59;96299.28;;;10.66;98.61
7990;BME280;4040;42.848;23.034;2022-11-12T08:37:48;96295.31;;;10.86;96.53
7990;BME280;4040;42.848;23.034;2022-11-12T08:43:38;96290.06;;;10.67;93.47
7990;BME280;4040;42.848;23.034;2022-11-12T08:49:27;96301.63;;;10.68;86.15
7990;BME280;4040;42.848;23.034;2022-11-12T08:55:16;96301.00;;;10.78;83.17
7990;BME280;4040;42.848;23.034;2022-11-12T09:01:07;96294.66;;;10.96;79.83
7990;BME280;4040;42.848;23.034;2022-11-12T09:06:56;96292.84;;;11.40;78.00
7990;BME280;4040;42.848;23.034;2022-11-12T09:12:44;96289.19;;;11.22;77.52
7990;BME280;4040;42.848;23.034;2022-11-12T09:23:02;96288.22;;;11.04;74.99
7990;BME280;4040;42.848;23.034;2022-11-12T09:28:52;96280.34;;;10.89;75.54
7990;BME280;4040;42.848;23.034;2022-11-12T09:34:40;96291.66;;;11.01;74.53
7990;BME280;4040;42.848;23.034;2022-11-12T09:40:42;96284.53;;;11.19;74.97
7990;BME280;4040;42.848;23.034;2022-11-12T09:46:39;96266.25;;;10.69;81.16
7990;BME280;4040;42.848;23.034;2022-11-12T09:52:30;96289.53;;;10.84;82.47
7990;BME280;4040;42.848;23.034;2022-11-12T09:58:21;96287.28;;;10.90;86.24
7990;BME280;4040;42.848;23.034;2022-11-12T10:04:22;96292.44;;;10.72;87.89
7990;BME280;4040;42.848;23.034;2022-11-12T10:10:18;96295.56;;;10.74;90.59
7990;BME280;4040;42.848;23.034;2022-11-12T10:16:23;96293.84;;;10.92;89.83
7990;BME280;4040;42.848;23.034;2022-11-12T10:22:42;96285.94;;;11.06;85.25
7990;BME280;4040;42.848;23.034;2022-11-12T10:28:40;96291.75;;;10.79;91.09
7990;BME280;4040;42.848;23.034;2022-11-12T10:34:32;96284.41;;;10.46;95.24
7990;BME280;4040;42.848;23.034;2022-11-12T10:40:28;96279.69;;;10.40;98.63
7990;BME280;4040;42.848;23.034;2022-11-12T10:46:20;96289.28;;;10.37;98.22
7990;BME280;4040;42.848;23.034;2022-11-12T10:52:20;96280.88;;;10.16;100.00
7990;BME280;4040;42.848;23.034;2022-11-12T10:58:15;96279.97;;;10.05;100.00
7990;BME280;4040;42.848;23.034;2022-11-12T11:04:15;96290.22;;;10.22;100.00
7990;BME280;4040;42.848;23.034;2022-11-12T11:10:22;96273.94;;;10.15;100.00
7990;BME280;4040;42.848;23.034;2022-11-12T11:16:13;96283.56;;;10.16;100.00
7990;BME280;4040;42.848;23.034;2022-11-12T11:28:20;96269.50;;;11.18;100.00
7990;BME280;4040;42.848;23.034;2022-11-12T11:34:19;96261.91;;;11.67;98.95
7990;BME280;4040;42.848;23.034;2022-11-12T11:40:18;96256.44;;;11.60;92.44
7990;BME280;4040;42.848;23.034;2022-11-12T11:46:16;96255.22;;;12.01;90.49
7990;BME280;4040;42.848;23.034;2022-11-12T11:52:18;96249.53;;;11.63;89.79
7990;BME280;4040;42.848;23.034;2022-11-12T11:58:19;96242.81;;;11.10;94.81
7990;BME280;4040;42.848;23.034;2022-11-12T12:04:30;96241.00;;;10.84;99.25
7990;BME280;4040;42.848;23.034;2022-11-12T12:10:29;96249.72;;;11.07;97.21
7990;BME280;4040;42.848;23.034;2022-11-12T12:16:40;96252.03;;;11.05;96.44
7990;BME280;4040;42.848;23.034;2022-11-12T12:22:38;96245.31;;;11.25;92.94
7990;BME280;4040;42.848;23.034;2022-11-12T12:28:35;96256.66;;;11.08;96.04
7990;BME280;4040;42.848;23.034;2022-11-12T12:34:28;96258.56;;;11.04;99.65
7990;BME280;4040;42.848;23.034;2022-11-12T12:40:23;96248.22;;;10.47;100.00
7990;BME280;4040;42.848;23.034;2022-11-12T12:46:14;96245.00;;;10.35;100.00
7990;BME280;4040;42.848;23.034;2022-11-12T12:52:05;96242.78;;;10.40;100.00
7990;BME280;4040;42.848;23.034;2022-11-12T12:57:59;96215.06;;;9.88;100.00
7990;BME280;4040;42.848;23.034;2022-11-12T13:03:53;96251.78;;;10.25;100.00
7990;BME280;4040;42.848;23.034;2022-11-12T13:09:42;96252.41;;;10.41;100.00
7990;BME280;4040;42.848;23.034;2022-11-12T13:15:43;96253.03;;;10.61;100.00
7990;BME280;4040;42.848;23.034;2022-11-12T13:32:35;96252.28;;;10.60;100.00
7990;BME280;4040;42.848;23.034;2022-11-12T13:38:25;96255.91;;;10.45;100.00
7990;BME280;4040;42.848;23.034;2022-11-12T13:44:15;96262.66;;;10.32;100.00
7990;BME280;4040;42.848;23.034;2022-11-12T13:50:07;96262.69;;;10.07;100.00
7990;BME280;4040;42.848;23.034;2022-11-12T13:55:58;96268.84;;;9.85;100.00
7990;BME280;4040;42.848;23.034;2022-11-12T14:01:48;96243.16;;;9.65;100.00
7990;BME280;4040;42.848;23.034;2022-11-12T14:07:45;96259.28;;;9.65;100.00
7990;BME280;4040;42.848;23.034;2022-11-12T14:13:43;96262.28;;;9.60;100.00
7990;BME280;4040;42.848;23.034;2022-11-12T14:25:59;96248.31;;;9.51;100.00
7990;BME280;4040;42.848;23.034;2022-11-12T14:31:59;96260.63;;;9.52;100.00
7990;BME280;4040;42.848;23.034;2022-11-12T14:37:51;96247.88;;;9.49;100.00
7990;BME280;4040;42.848;23.034;2022-11-12T14:43:45;96246.34;;;9.48;100.00
7990;BME280;4040;42.848;23.034;2022-11-12T14:49:37;96248.06;;;9.37;100.00
7990;BME280;4040;42.848;23.034;2022-11-12T14:55:29;96240.41;;;9.39;100.00
7990;BME280;4040;42.848;23.034;2022-11-12T15:01:23;96237.19;;;9.30;100.00
7990;BME280;4040;42.848;23.034;2022-11-12T15:07:24;96263.09;;;9.19;100.00
7990;BME280;4040;42.848;23.034;2022-11-12T15:13:14;96255.28;;;9.10;100.00
7990;BME280;4040;42.848;23.034;2022-11-12T15:19:23;96269.78;;;9.06;100.00
7990;BME280;4040;42.848;23.034;2022-11-12T15:25:19;96266.47;;;8.93;100.00
7990;BME280;4040;42.848;23.034;2022-11-12T15:31:17;96275.16;;;8.68;100.00
7990;BME280;4040;42.848;23.034;2022-11-12T15:37:10;96246.69;;;8.63;100.00
7990;BME280;4040;42.848;23.034;2022-11-12T15:43:00;96240.25;;;8.49;100.00
7990;BME280;4040;42.848;23.034;2022-11-12T15:48:49;96246.66;;;8.44;100.00
7990;BME280;4040;42.848;23.034;2022-11-12T15:54:39;96262.22;;;8.35;100.00
7990;BME280;4040;42.848;23.034;2022-11-12T16:00:31;96258.97;;;8.26;100.00
7990;BME280;4040;42.848;23.034;2022-11-12T16:06:20;96268.91;;;8.26;100.00
7990;BME280;4040;42.848;23.034;2022-11-12T16:12:12;96282.00;;;8.27;100.00
7990;BME280;4040;42.848;23.034;2022-11-12T16:18:02;96297.19;;;8.39;100.00
7990;BME280;4040;42.848;23.034;2022-11-12T16:28:15;96291.00;;;8.54;100.00
7990;BME280;4040;42.848;23.034;2022-11-12T16:34:04;96307.66;;;8.44;100.00
7990;BME280;4040;42.848;23.034;2022-11-12T16:39:53;96306.94;;;8.47;100.00
7990;BME280;4040;42.848;23.034;2022-11-12T16:45:44;96312.81;;;8.52;100.00
7990;BME280;4040;42.848;23.034;2022-11-12T16:51:33;96310.38;;;8.63;100.00
7990;BME280;4040;42.848;23.034;2022-11-12T16:57:21;96286.97;;;8.82;100.00
7990;BME280;4040;42.848;23.034;2022-11-12T17:03:12;96280.28;;;8.73;100.00
7990;BME280;4040;42.848;23.034;2022-11-12T17:09:02;96279.69;;;8.64;100.00
7990;BME280;4040;42.848;23.034;2022-11-12T17:14:51;96275.94;;;8.49;100.00
7990;BME280;4040;42.848;23.034;2022-11-12T17:20:41;96291.84;;;8.58;100.00
7990;BME280;4040;42.848;23.034;2022-11-12T17:30:31;96289.81;;;8.70;100.00
7990;BME280;4040;42.848;23.034;2022-11-12T17:36:23;96299.13;;;8.57;100.00
7990;BME280;4040;42.848;23.034;2022-11-12T17:42:12;96293.66;;;8.35;100.00
7990;BME280;4040;42.848;23.034;2022-11-12T17:48:01;96309.59;;;8.28;100.00
7990;BME280;4040;42.848;23.034;2022-11-12T17:53:51;96279.16;;;8.05;100.00
7990;BME280;4040;42.848;23.034;2022-11-12T17:59:40;96299.38;;;8.18;100.00
7990;BME280;4040;42.848;23.034;2022-11-12T18:05:29;96307.78;;;8.32;100.00
7990;BME280;4040;42.848;23.034;2022-11-12T18:11:20;96306.69;;;8.52;100.00
7990;BME280;4040;42.848;23.034;2022-11-12T18:17:09;96302.72;;;8.46;100.00
7990;BME280;4040;42.848;23.034;2022-11-12T18:22:57;96294.81;;;8.53;100.00
7990;BME280;4040;42.848;23.034;2022-11-12T18:32:59;96315.28;;;8.42;100.00
7990;BME280;4040;42.848;23.034;2022-11-12T18:38:47;96292.94;;;8.38;100.00
7990;BME280;4040;42.848;23.034;2022-11-12T18:44:38;96301.81;;;8.23;100.00
7990;BME280;4040;42.848;23.034;2022-11-12T18:50:28;96304.81;;;8.37;100.00
7990;BME280;4040;42.848;23.034;2022-11-12T18:56:18;96308.78;;;8.43;100.00
7990;BME280;4040;42.848;23.034;2022-11-12T19:02:08;96310.50;;;8.51;100.00
7990;BME280;4040;42.848;23.034;2022-11-12T19:07:59;96308.50;;;8.48;100.00
7990;BME280;4040;42.848;23.034;2022-11-12T19:13:49;96320.13;;;8.52;100.00
7990;BME280;4040;42.848;23.034;2022-11-12T19:19:38;96317.56;;;8.40;100.00
7990;BME280;4040;42.848;23.034;2022-11-12T19:25:28;96325.63;;;8.59;100.00
7990;BME280;4040;42.848;23.034;2022-11-12T19:35:39;96334.56;;;8.82;100.00
7990;BME280;4040;42.848;23.034;2022-11-12T19:41:29;96322.25;;;8.81;100.00
7990;BME280;4040;42.848;23.034;2022-11-12T19:47:18;96346.16;;;8.86;100.00
7990;BME280;4040;42.848;23.034;2022-11-12T19:53:06;96342.97;;;8.80;100.00
7990;BME280;4040;42.848;23.034;2022-11-12T19:58:56;96344.88;;;8.99;100.00
7990;BME280;4040;42.848;23.034;2022-11-12T20:04:45;96340.06;;;8.89;100.00
7990;BME280;4040;42.848;23.034;2022-11-12T20:10:33;96343.41;;;8.82;100.00
7990;BME280;4040;42.848;23.034;2022-11-12T20:16:23;96359.84;;;8.62;100.00
7990;BME280;4040;42.848;23.034;2022-11-12T20:22:12;96359.84;;;8.62;100.00
7990;BME280;4040;42.848;23.034;2022-11-12T20:28:01;96354.03;;;8.60;100.00
7990;BME280;4040;42.848;23.034;2022-11-12T20:38:12;96362.97;;;8.64;100.00
7990;BME280;4040;42.848;23.034;2022-11-12T20:44:01;96357.38;;;8.72;100.00
7990;BME280;4040;42.848;23.034;2022-11-12T20:49:49;96356.75;;;8.98;100.00
7990;BME280;4040;42.848;23.034;2022-11-12T20:55:39;96350.34;;;9.02;100.00
7990;BME280;4040;42.848;23.034;2022-11-12T21:01:29;96353.66;;;8.96;100.00
7990;BME280;4040;42.848;23.034;2022-11-12T21:07:17;96347.16;;;8.97;100.00
7990;BME280;4040;42.848;23.034;2022-11-12T21:13:07;96351.38;;;8.98;100.00
7990;BME280;4040;42.848;23.034;2022-11-12T21:18:59;96347.44;;;8.92;100.00
7990;BME280;4040;42.848;23.034;2022-11-12T21:24:47;96357.06;;;8.93;100.00
7990;BME280;4040;42.848;23.034;2022-11-12T21:30:38;96350.25;;;8.99;100.00
7990;BME280;4040;42.848;23.034;2022-11-12T21:40:48;96355.06;;;8.90;100.00
7990;BME280;4040;42.848;23.034;2022-11-12T21:46:38;96351.38;;;8.98;100.00
7990;BME280;4040;42.848;23.034;2022-11-12T21:52:27;96352.59;;;9.00;100.00
7990;BME280;4040;42.848;23.034;2022-11-12T21:58:15;96347.88;;;8.94;100.00
7990;BME280;4040;42.848;23.034;2022-11-12T22:04:06;96341.06;;;9.00;100.00
7990;BME280;4040;42.848;23.034;2022-11-12T22:09:55;96354.06;;;8.98;100.00
7990;BME280;4040;42.848;23.034;2022-11-12T22:15:44;96354.41;;;8.96;100.00
7990;BME280;4040;42.848;23.034;2022-11-12T22:21:34;96353.25;;;8.94;100.00
7990;BME280;4040;42.848;23.034;2022-11-12T22:27:23;96354.22;;;9.05;100.00
7990;BME280;4040;42.848;23.034;2022-11-12T22:33:11;96345.19;;;9.13;100.00
7990;BME280;4040;42.848;23.034;2022-11-12T22:43:23;96343.09;;;9.25;100.00
7990;BME280;4040;42.848;23.034;2022-11-12T22:49:13;96351.13;;;9.03;100.00
7990;BME280;4040;42.848;23.034;2022-11-12T22:55:02;96345.22;;;9.16;100.00
7990;BME280;4040;42.848;23.034;2022-11-12T23:08:32;96325.81;;;9.04;100.00
7990;BME280;4040;42.848;23.034;2022-11-12T23:14:22;96327.44;;;9.08;100.00
7990;BME280;4040;42.848;23.034;2022-11-12T23:20:11;96324.66;;;9.24;100.00
7990;BME280;4040;42.848;23.034;2022-11-12T23:26:02;96313.59;;;9.29;100.00
7990;BME280;4040;42.848;23.034;2022-11-12T23:31:52;96322.16;;;9.15;100.00
7990;BME280;4040;42.848;23.034;2022-11-12T23:37:40;96305.47;;;9.25;100.00
7990;BME280;4040;42.848;23.034;2022-11-12T23:43:30;96308.72;;;9.34;100.00
7990;BME280;4040;42.848;23.034;2022-11-12T23:49:19;96295.59;;;9.33;100.00
7990;BME280;4040;42.848;23.034;2022-11-12T23:55:08;96311.06;;;9.36;100.00
